createdAt,value
2023-05-22T00:01:31.677Z,10.68
2023-05-22T00:03:58.305Z,10.64
2023-05-22T00:06:26.319Z,10.60
2023-05-22T00:08:52.653Z,10.56
2023-05-22T00:11:18.998Z,10.52
2023-05-22T00:13:45.742Z,10.48
2023-05-22T00:16:12.131Z,10.43
2023-05-22T00:18:41.570Z,10.45
2023-05-22T00:21:08.276Z,10.35
2023-05-22T00:23:35.356Z,10.25
2023-05-22T00:26:01.790Z,10.18
2023-05-22T00:28:28.292Z,10.14
2023-05-22T00:30:54.648Z,10.08
2023-05-22T00:33:21.005Z,10.17
2023-05-22T00:35:47.456Z,10.17
2023-05-22T00:38:28.885Z,10.18
2023-05-22T00:40:56.048Z,10.15
2023-05-22T00:43:22.482Z,10.10
2023-05-22T00:45:48.881Z,10.13
2023-05-22T00:48:15.239Z,10.13
2023-05-22T00:50:41.770Z,10.09
2023-05-22T00:53:08.935Z,10.01
2023-05-22T00:55:35.365Z,9.95
2023-05-22T00:58:06.847Z,9.86
2023-05-22T01:00:34.446Z,9.79
2023-05-22T01:03:02.231Z,9.76
2023-05-22T01:05:28.754Z,9.70
2023-05-22T01:07:56.422Z,9.64
2023-05-22T01:10:23.376Z,9.71
2023-05-22T01:12:59.231Z,9.74
2023-05-22T01:15:38.815Z,9.72
2023-05-22T01:18:18.846Z,9.71
2023-05-22T01:20:54.349Z,9.64
2023-05-22T01:23:31.912Z,9.51
2023-05-22T01:26:22.092Z,9.42
2023-05-22T01:29:01.773Z,9.40
2023-05-22T01:31:31.184Z,9.34
2023-05-22T01:34:00.111Z,9.37
2023-05-22T01:36:30.322Z,9.39
2023-05-22T01:39:00.701Z,9.38
2023-05-22T01:41:28.702Z,9.38
2023-05-22T01:43:55.505Z,9.32
2023-05-22T01:46:25.781Z,9.27
2023-05-22T01:48:52.880Z,9.21
2023-05-22T01:51:23.670Z,9.22
2023-05-22T01:53:57.017Z,9.30
2023-05-22T01:56:30.169Z,9.24
2023-05-22T01:59:01.323Z,9.22
2023-05-22T02:01:30.827Z,9.20
2023-05-22T02:03:58.477Z,9.20
2023-05-22T02:06:28.398Z,9.11
2023-05-22T02:08:55.536Z,9.00
2023-05-22T02:11:24.234Z,8.94
2023-05-22T02:13:51.301Z,8.99
2023-05-22T02:16:18.607Z,8.92
2023-05-22T02:18:45.914Z,8.94
2023-05-22T02:21:12.944Z,8.91
2023-05-22T02:23:39.433Z,8.86
2023-05-22T02:26:06.066Z,8.83
2023-05-22T02:28:32.931Z,8.77
2023-05-22T02:30:59.362Z,8.82
2023-05-22T02:33:26.241Z,8.87
2023-05-22T02:35:52.595Z,8.84
2023-05-22T02:38:19.640Z,8.84
2023-05-22T02:40:46.366Z,8.86
2023-05-22T02:43:12.756Z,8.80
2023-05-22T02:45:39.071Z,8.80
2023-05-22T02:48:06.027Z,8.83
2023-05-22T02:50:32.461Z,8.88
2023-05-22T02:52:58.785Z,8.87
2023-05-22T02:55:25.821Z,8.83
2023-05-22T02:57:52.152Z,8.84
2023-05-22T03:00:19.955Z,8.84
2023-05-22T03:02:46.591Z,8.84
2023-05-22T03:05:16.864Z,8.85
2023-05-22T03:07:45.006Z,8.85
2023-05-22T03:10:12.346Z,8.83
2023-05-22T03:12:39.354Z,8.83
2023-05-22T03:15:06.747Z,8.87
2023-05-22T03:17:33.165Z,8.92
2023-05-22T03:19:59.486Z,8.91
2023-05-22T03:22:25.966Z,8.89
2023-05-22T03:24:52.769Z,8.95
2023-05-22T03:27:19.518Z,9.03
2023-05-22T03:29:46.530Z,9.03
2023-05-22T03:32:12.926Z,9.01
2023-05-22T03:34:39.266Z,9.03
2023-05-22T03:37:05.623Z,9.06
2023-05-22T03:39:31.959Z,9.06
2023-05-22T03:41:58.333Z,9.01
2023-05-22T03:44:24.812Z,8.98
2023-05-22T03:46:51.864Z,8.99
2023-05-22T03:49:18.228Z,8.96
2023-05-22T03:51:44.621Z,8.97
2023-05-22T03:54:11.030Z,8.95
2023-05-22T03:56:37.375Z,8.97
2023-05-22T03:59:03.742Z,8.99
2023-05-22T04:01:30.781Z,9.00
2023-05-22T04:03:57.781Z,9.08
2023-05-22T04:06:24.924Z,9.18
2023-05-22T04:08:51.247Z,9.24
2023-05-22T04:11:17.814Z,9.27
2023-05-22T04:13:44.513Z,9.25
2023-05-22T04:16:10.955Z,9.28
2023-05-22T04:18:37.307Z,9.32
2023-05-22T04:21:07.327Z,9.34
2023-05-22T04:23:33.668Z,9.34
2023-05-22T04:26:01.702Z,9.40
2023-05-22T04:28:29.538Z,9.52
2023-05-22T04:30:56.888Z,9.62
2023-05-22T04:33:24.064Z,9.76
2023-05-22T04:35:50.501Z,10.00
2023-05-22T04:38:17.872Z,10.21
2023-05-22T04:40:44.247Z,10.43
2023-05-22T04:43:11.786Z,10.72
2023-05-22T04:45:38.604Z,10.96
2023-05-22T04:48:05.722Z,11.23
2023-05-22T04:50:32.138Z,11.50
2023-05-22T04:52:59.311Z,11.70
2023-05-22T04:55:26.596Z,11.91
2023-05-22T04:57:52.954Z,12.14
2023-05-22T05:00:21.863Z,12.35
2023-05-22T05:02:49.973Z,12.53
2023-05-22T05:05:16.486Z,12.66
2023-05-22T05:07:43.196Z,12.84
2023-05-22T05:10:10.310Z,13.00
2023-05-22T05:12:37.386Z,13.19
2023-05-22T05:15:08.054Z,13.35
2023-05-22T05:17:34.625Z,13.50
2023-05-22T05:20:01.186Z,13.65
2023-05-22T05:22:27.582Z,13.80
2023-05-22T05:24:53.928Z,13.95
2023-05-22T05:27:20.335Z,14.08
2023-05-22T05:29:47.375Z,14.23
2023-05-22T05:32:13.816Z,14.36
2023-05-22T05:34:40.817Z,14.48
2023-05-22T05:37:07.268Z,14.62
2023-05-22T05:39:33.910Z,14.78
2023-05-22T05:42:00.627Z,14.89
2023-05-22T05:44:27.016Z,14.97
2023-05-22T05:46:54.380Z,15.11
2023-05-22T05:49:20.854Z,15.22
2023-05-22T05:51:47.216Z,15.38
2023-05-22T05:54:13.616Z,15.48
2023-05-22T05:56:40.010Z,15.58
2023-05-22T05:59:06.569Z,15.70
2023-05-22T06:01:34.515Z,15.82
2023-05-22T06:04:02.752Z,15.90
2023-05-22T06:06:30.182Z,16.05
2023-05-22T06:08:56.745Z,16.17
2023-05-22T06:11:23.420Z,16.30
2023-05-22T06:13:49.811Z,16.46
2023-05-22T06:16:16.253Z,16.56
2023-05-22T06:18:42.740Z,16.67
2023-05-22T06:21:10.026Z,16.80
2023-05-22T06:23:36.437Z,16.85
2023-05-22T06:26:02.916Z,17.06
2023-05-22T06:28:29.313Z,17.15
2023-05-22T06:30:56.447Z,17.23
2023-05-22T06:33:22.932Z,17.36
2023-05-22T06:35:49.445Z,17.47
2023-05-22T06:38:16.586Z,17.54
2023-05-22T06:40:42.967Z,17.68
2023-05-22T06:43:10.540Z,17.74
2023-05-22T06:45:37.738Z,17.92
2023-05-22T06:48:04.527Z,17.99
2023-05-22T06:50:31.026Z,18.02
2023-05-22T06:52:57.487Z,18.18
2023-05-22T06:55:24.641Z,18.36
2023-05-22T06:57:51.053Z,18.50
2023-05-22T07:00:20.891Z,18.64
2023-05-22T07:02:48.545Z,18.77
2023-05-22T07:05:15.182Z,18.81
2023-05-22T07:07:41.662Z,18.86
2023-05-22T07:10:08.861Z,18.87
2023-05-22T07:12:35.949Z,18.89
2023-05-22T07:15:02.766Z,19.07
2023-05-22T07:17:29.400Z,19.13
2023-05-22T07:19:56.196Z,19.19
2023-05-22T07:22:22.639Z,19.21
2023-05-22T07:24:49.098Z,19.32
2023-05-22T07:27:15.548Z,19.52
2023-05-22T07:29:42.672Z,19.67
2023-05-22T07:32:09.127Z,19.77
2023-05-22T07:34:35.521Z,19.79
2023-05-22T07:37:06.878Z,19.92
2023-05-22T07:39:33.307Z,19.93
2023-05-22T07:42:01.555Z,19.94
2023-05-22T07:44:28.414Z,20.06
2023-05-22T07:46:55.495Z,20.10
2023-05-22T07:49:22.792Z,20.05
2023-05-22T07:51:49.219Z,20.08
2023-05-22T07:54:15.644Z,20.20
2023-05-22T07:56:42.287Z,20.26
2023-05-22T07:59:09.996Z,20.30
2023-05-22T08:01:37.372Z,20.26
2023-05-22T08:04:05.008Z,20.44
2023-05-22T08:06:31.840Z,20.35
2023-05-22T08:08:59.345Z,20.49
2023-05-22T08:11:25.854Z,20.57
2023-05-22T08:13:52.353Z,20.78
2023-05-22T08:16:18.806Z,20.91
2023-05-22T08:18:45.261Z,21.05
2023-05-22T08:21:12.358Z,21.18
2023-05-22T08:23:38.765Z,21.16
2023-05-22T08:26:08.005Z,21.14
2023-05-22T08:28:34.345Z,21.19
2023-05-22T08:31:00.839Z,21.22
2023-05-22T08:33:27.523Z,21.21
2023-05-22T08:35:59.866Z,21.41
2023-05-22T08:38:26.923Z,21.52
2023-05-22T08:40:54.570Z,21.82
2023-05-22T08:43:20.990Z,21.82
2023-05-22T08:45:55.413Z,21.96
2023-05-22T08:48:23.491Z,22.00
2023-05-22T08:50:56.580Z,22.13
2023-05-22T08:53:23.670Z,22.33
2023-05-22T08:55:52.406Z,22.50
2023-05-22T08:58:18.978Z,22.39
2023-05-22T09:00:45.711Z,22.37
2023-05-22T09:03:14.063Z,22.33
2023-05-22T09:05:40.998Z,22.51
2023-05-22T09:08:19.210Z,22.71
2023-05-22T09:10:47.182Z,22.84
2023-05-22T09:13:24.825Z,23.01
2023-05-22T09:15:51.311Z,23.09
2023-05-22T09:18:17.747Z,23.18
2023-05-22T09:20:44.357Z,23.27
2023-05-22T09:23:12.451Z,23.41
2023-05-22T09:25:38.857Z,23.66
2023-05-22T09:28:05.247Z,23.75
2023-05-22T09:30:35.401Z,23.51
2023-05-22T09:33:02.038Z,23.55
2023-05-22T09:35:31.078Z,23.67
2023-05-22T09:37:58.710Z,23.50
2023-05-22T09:40:27.438Z,23.62
2023-05-22T09:42:53.778Z,23.68
2023-05-22T09:45:23.348Z,23.84
2023-05-22T09:47:50.548Z,23.86
2023-05-22T09:50:17.802Z,24.19
2023-05-22T09:52:46.121Z,24.43
2023-05-22T09:55:13.806Z,24.91
2023-05-22T09:57:42.870Z,24.59
2023-05-22T10:00:12.491Z,24.57
2023-05-22T10:02:43.507Z,24.76
2023-05-22T10:05:12.197Z,25.07
2023-05-22T10:07:46.273Z,25.16
2023-05-22T10:10:15.021Z,25.36
2023-05-22T10:12:44.752Z,25.48
2023-05-22T10:15:11.853Z,25.36
2023-05-22T10:17:40.057Z,25.26
2023-05-22T10:20:08.290Z,25.26
2023-05-22T10:22:37.388Z,25.63
2023-05-22T10:25:04.997Z,25.41
2023-05-22T10:27:31.583Z,26.11
2023-05-22T10:30:05.881Z,26.62
2023-05-22T10:32:38.304Z,26.95
2023-05-22T10:35:13.656Z,27.19
2023-05-22T10:37:52.554Z,26.96
2023-05-22T10:40:28.069Z,27.26
2023-05-22T10:42:58.800Z,26.92
2023-05-22T10:45:28.788Z,27.04
2023-05-22T10:48:05.415Z,27.10
2023-05-22T10:50:34.811Z,27.06
2023-05-22T10:53:22.647Z,27.44
2023-05-22T10:55:49.628Z,26.60
2023-05-22T10:58:16.258Z,26.92
2023-05-22T11:00:42.839Z,27.00
2023-05-22T11:03:17.664Z,27.48
2023-05-22T11:05:52.865Z,27.89
2023-05-22T11:08:48.053Z,28.12
2023-05-22T11:11:14.464Z,28.33
2023-05-22T11:13:41.817Z,28.71
2023-05-22T11:16:09.859Z,28.82
2023-05-22T11:18:36.917Z,28.41
2023-05-22T11:21:05.274Z,28.10
2023-05-22T11:23:37.849Z,27.49
2023-05-22T11:26:21.858Z,27.84
2023-05-22T11:28:50.917Z,28.25
2023-05-22T11:31:18.201Z,28.36
2023-05-22T11:33:46.207Z,28.60
2023-05-22T11:36:15.208Z,28.58
2023-05-22T11:38:42.487Z,28.76
2023-05-22T11:41:09.601Z,28.94
2023-05-22T11:43:37.166Z,28.97
2023-05-22T11:46:07.029Z,28.49
2023-05-22T11:48:33.762Z,27.88
2023-05-22T11:51:00.260Z,27.76
2023-05-22T11:53:26.671Z,27.55
2023-05-22T11:55:53.012Z,27.32
2023-05-22T11:58:22.061Z,27.78
2023-05-22T12:00:49.176Z,27.82
2023-05-22T12:03:16.867Z,28.15
2023-05-22T12:05:45.336Z,27.78
2023-05-22T12:08:14.811Z,27.69
2023-05-22T12:10:47.181Z,27.49
2023-05-22T12:13:13.610Z,27.57
2023-05-22T12:15:40.066Z,27.28
2023-05-22T12:18:09.403Z,27.22
2023-05-22T12:20:41.045Z,27.35
2023-05-22T12:23:11.254Z,27.52
2023-05-22T12:25:37.712Z,27.40
2023-05-22T12:28:06.234Z,27.00
2023-05-22T12:30:40.312Z,26.77
2023-05-22T12:33:12.507Z,26.69
2023-05-22T12:35:38.899Z,26.74
2023-05-22T12:38:07.702Z,26.69
2023-05-22T12:40:34.322Z,26.43
2023-05-22T12:43:00.779Z,26.39
2023-05-22T12:45:27.156Z,26.65
2023-05-22T12:47:53.653Z,26.55
2023-05-22T12:50:20.911Z,26.58
2023-05-22T12:52:47.333Z,26.63
2023-05-22T12:55:13.774Z,26.40
2023-05-22T12:57:46.070Z,26.33
2023-05-22T13:00:13.544Z,26.22
2023-05-22T13:02:40.031Z,26.25
2023-05-22T13:05:07.084Z,26.14
2023-05-22T13:07:34.175Z,26.07
2023-05-22T13:10:00.577Z,25.96
2023-05-22T13:12:26.995Z,25.93
2023-05-22T13:14:53.398Z,25.87
2023-05-22T13:17:20.178Z,25.97
2023-05-22T13:19:46.602Z,26.02
2023-05-22T13:22:14.041Z,25.99
2023-05-22T13:24:41.111Z,25.83
2023-05-22T13:27:07.540Z,25.85
2023-05-22T13:29:33.982Z,25.89
2023-05-22T13:32:00.481Z,26.02
2023-05-22T13:34:27.869Z,26.01
2023-05-22T13:36:54.753Z,25.99
2023-05-22T13:39:22.012Z,25.95
2023-05-22T13:41:51.125Z,25.86
2023-05-22T13:44:17.602Z,26.07
2023-05-22T13:46:44.140Z,26.19
2023-05-22T13:49:10.638Z,26.26
2023-05-22T13:51:37.406Z,26.41
2023-05-22T13:54:04.194Z,26.40
2023-05-22T13:56:30.618Z,26.31
2023-05-22T13:58:57.706Z,26.33
2023-05-22T14:01:24.117Z,26.34
2023-05-22T14:03:50.644Z,26.24
2023-05-22T14:06:19.707Z,26.05
2023-05-22T14:08:46.236Z,26.13
2023-05-22T14:11:12.715Z,26.15
2023-05-22T14:13:39.188Z,26.28
2023-05-22T14:16:06.325Z,26.24
2023-05-22T14:18:32.771Z,26.37
2023-05-22T14:21:04.621Z,26.28
2023-05-22T14:23:31.461Z,26.15
2023-05-22T14:25:57.893Z,26.15
2023-05-22T14:28:24.353Z,26.12
2023-05-22T14:30:53.598Z,26.14
2023-05-22T14:33:20.724Z,26.21
2023-05-22T14:35:47.772Z,26.26
2023-05-22T14:38:14.240Z,26.24
2023-05-22T14:40:40.690Z,26.17
2023-05-22T14:43:07.150Z,26.40
2023-05-22T14:45:33.743Z,26.47
2023-05-22T14:48:00.292Z,26.51
2023-05-22T14:50:27.438Z,26.40
2023-05-22T14:53:02.153Z,26.43
2023-05-22T14:55:28.567Z,26.49
2023-05-22T14:57:55.654Z,26.44
2023-05-22T15:00:22.139Z,26.42
2023-05-22T15:02:48.636Z,26.74
2023-05-22T15:05:15.235Z,26.88
2023-05-22T15:07:46.090Z,26.86
2023-05-22T15:10:13.765Z,26.65
2023-05-22T15:12:40.225Z,26.32
2023-05-22T15:15:07.864Z,26.19
2023-05-22T15:17:34.562Z,25.89
2023-05-22T15:20:01.157Z,25.74
2023-05-22T15:22:27.609Z,25.62
2023-05-22T15:25:04.558Z,25.34
2023-05-22T15:27:31.058Z,25.30
2023-05-22T15:29:57.440Z,25.36
2023-05-22T15:32:23.812Z,24.82
2023-05-22T15:34:50.890Z,24.57
2023-05-22T15:37:17.253Z,24.35
2023-05-22T15:39:43.653Z,24.15
2023-05-22T15:42:10.674Z,23.90
2023-05-22T15:44:37.108Z,24.06
2023-05-22T15:47:03.647Z,24.25
2023-05-22T15:49:31.424Z,24.25
2023-05-22T15:51:58.557Z,24.31
2023-05-22T15:54:26.945Z,24.68
2023-05-22T15:56:53.326Z,24.96
2023-05-22T15:59:21.752Z,25.25
2023-05-22T16:01:48.245Z,25.44
2023-05-22T16:04:14.675Z,25.38
2023-05-22T16:06:41.288Z,25.27
2023-05-22T16:09:08.669Z,25.25
2023-05-22T16:11:36.966Z,25.21
2023-05-22T16:14:03.628Z,25.03
2023-05-22T16:16:30.794Z,25.03
2023-05-22T16:18:57.356Z,24.86
2023-05-22T16:21:23.765Z,24.93
2023-05-22T16:23:50.293Z,25.10
2023-05-22T16:26:16.674Z,25.21
2023-05-22T16:28:43.084Z,25.16
2023-05-22T16:31:09.586Z,24.98
2023-05-22T16:33:36.754Z,24.87
2023-05-22T16:36:03.422Z,24.49
2023-05-22T16:38:29.827Z,24.16
2023-05-22T16:40:56.308Z,23.90
2023-05-22T16:43:22.744Z,23.61
2023-05-22T16:45:50.373Z,23.55
2023-05-22T16:48:16.923Z,23.69
2023-05-22T16:50:45.777Z,23.77
2023-05-22T16:53:12.448Z,23.75
2023-05-22T16:55:39.256Z,23.99
2023-05-22T16:58:06.074Z,24.33
2023-05-22T17:00:32.503Z,25.14
2023-05-22T17:02:59.739Z,25.19
2023-05-22T17:05:27.993Z,24.94
2023-05-22T17:07:55.056Z,25.47
2023-05-22T17:13:18.811Z,25.84
2023-05-22T17:15:45.454Z,26.45
2023-05-22T17:18:11.861Z,27.09
2023-05-22T17:20:38.288Z,26.52
2023-05-22T17:23:06.524Z,25.90
2023-05-22T17:25:32.903Z,25.37
2023-05-22T17:27:59.213Z,24.56
2023-05-22T17:30:25.599Z,23.93
2023-05-22T17:32:55.370Z,23.55
2023-05-22T17:35:21.819Z,23.28
2023-05-22T17:37:48.475Z,23.03
2023-05-22T17:40:15.751Z,22.76
2023-05-22T17:42:42.133Z,22.63
2023-05-22T17:45:09.801Z,22.48
2023-05-22T17:47:36.195Z,22.36
2023-05-22T17:50:02.552Z,22.30
2023-05-22T17:52:28.921Z,22.13
2023-05-22T17:54:55.497Z,21.97
2023-05-22T17:57:22.613Z,21.81
2023-05-22T17:59:49.349Z,21.68
2023-05-22T18:02:15.811Z,21.53
2023-05-22T18:04:42.175Z,21.39
2023-05-22T18:07:08.541Z,21.24
2023-05-22T18:09:34.935Z,21.08
2023-05-22T18:12:02.843Z,20.99
2023-05-22T18:14:30.017Z,20.84
2023-05-22T18:16:57.528Z,20.60
2023-05-22T18:19:23.949Z,20.50
2023-05-22T18:21:52.757Z,20.31
2023-05-22T18:24:24.988Z,20.15
2023-05-22T18:26:51.654Z,19.99
2023-05-22T18:29:18.183Z,19.84
2023-05-22T18:31:45.199Z,19.63
2023-05-22T18:34:12.829Z,19.54
2023-05-22T18:36:40.470Z,19.40
2023-05-22T18:39:08.142Z,19.24
2023-05-22T18:41:36.229Z,19.08
2023-05-22T18:44:02.976Z,18.88
2023-05-22T18:46:34.142Z,18.62
2023-05-22T18:49:01.173Z,18.48
2023-05-22T18:51:28.286Z,18.53
2023-05-22T18:53:55.758Z,18.51
2023-05-22T18:56:22.115Z,18.53
2023-05-22T18:58:48.520Z,18.48
2023-05-22T19:01:15.945Z,18.51
2023-05-22T19:03:42.358Z,18.56
2023-05-22T19:06:09.371Z,18.51
2023-05-22T19:08:35.773Z,18.53
2023-05-22T19:11:02.290Z,18.47
2023-05-22T19:13:28.802Z,18.38
2023-05-22T19:15:56.541Z,18.32
2023-05-22T19:18:22.954Z,18.29
2023-05-22T19:20:49.268Z,18.35
2023-05-22T19:23:16.264Z,18.37
2023-05-22T19:25:42.636Z,18.35
2023-05-22T19:28:09.020Z,18.36
2023-05-22T19:30:35.581Z,18.37
2023-05-22T19:33:02.112Z,18.35
2023-05-22T19:35:28.548Z,18.38
2023-05-22T19:37:54.945Z,18.38
2023-05-22T19:40:21.923Z,18.35
2023-05-22T19:42:48.497Z,18.35
2023-05-22T19:45:14.908Z,18.37
2023-05-22T19:47:41.309Z,18.40
2023-05-22T19:50:08.548Z,18.36
2023-05-22T19:52:34.902Z,18.41
2023-05-22T19:55:01.247Z,18.50
2023-05-22T19:57:28.744Z,18.50
2023-05-22T19:59:55.167Z,18.51
2023-05-22T20:02:21.663Z,18.49
2023-05-22T20:04:48.079Z,18.49
2023-05-22T20:07:14.541Z,18.47
2023-05-22T20:09:41.072Z,18.46
2023-05-22T20:12:07.717Z,18.39
2023-05-22T20:14:35.621Z,18.31
2023-05-22T20:17:02.222Z,18.22
2023-05-22T20:19:29.162Z,18.12
2023-05-22T20:21:57.441Z,18.03
2023-05-22T20:24:24.391Z,17.94
2023-05-22T20:26:51.012Z,17.88
2023-05-22T20:29:17.589Z,17.88
2023-05-22T20:31:45.110Z,17.82
2023-05-22T20:34:11.488Z,17.75
2023-05-22T20:36:39.163Z,17.67
2023-05-22T20:39:06.053Z,17.53
2023-05-22T20:41:32.972Z,17.35
2023-05-22T20:43:59.348Z,17.20
2023-05-22T20:46:26.318Z,17.11
2023-05-22T20:48:53.976Z,16.98
2023-05-22T20:51:20.600Z,16.82
2023-05-22T20:53:47.251Z,16.62
2023-05-22T20:56:13.899Z,16.51
2023-05-22T20:58:40.352Z,16.23
2023-05-22T21:01:09.972Z,16.04
2023-05-22T21:03:36.982Z,15.99
2023-05-22T21:06:04.410Z,15.92
2023-05-22T21:08:30.756Z,15.80
2023-05-22T21:10:59.090Z,15.78
2023-05-22T21:13:28.138Z,15.69
2023-05-22T21:15:54.479Z,15.61
2023-05-22T21:18:21.305Z,15.47
2023-05-22T21:20:47.665Z,15.47
2023-05-22T21:23:15.093Z,15.44
2023-05-22T21:25:41.741Z,15.39
2023-05-22T21:28:08.223Z,15.25
2023-05-22T21:30:34.640Z,15.20
2023-05-22T21:33:01.020Z,15.14
2023-05-22T21:35:27.456Z,15.08
2023-05-22T21:37:53.831Z,14.99
2023-05-22T21:40:20.901Z,15.00
2023-05-22T21:42:47.611Z,15.04
2023-05-22T21:45:14.171Z,15.03
2023-05-22T21:47:40.531Z,14.96
2023-05-22T21:50:07.633Z,14.91
2023-05-22T21:52:35.727Z,14.85
2023-05-22T21:55:02.105Z,14.75
2023-05-22T21:57:29.174Z,14.70
2023-05-22T21:59:55.602Z,14.55
2023-05-22T22:02:22.021Z,14.48
2023-05-22T22:04:49.507Z,14.48
2023-05-22T22:07:15.851Z,14.44
2023-05-22T22:09:42.273Z,14.49
2023-05-22T22:12:08.693Z,14.54
2023-05-22T22:14:35.738Z,14.50
2023-05-22T22:17:04.908Z,14.51
2023-05-22T22:19:33.404Z,14.57
2023-05-22T22:21:59.938Z,14.54
2023-05-22T22:24:26.293Z,14.61
2023-05-22T22:26:52.649Z,14.69
2023-05-22T22:29:19.002Z,14.76
2023-05-22T22:31:46.025Z,14.89
2023-05-22T22:34:12.498Z,15.00
2023-05-22T22:36:39.336Z,15.11
2023-05-22T22:39:05.721Z,15.21
2023-05-22T22:41:32.059Z,15.27
2023-05-22T22:43:58.428Z,15.34
2023-05-22T22:46:27.595Z,15.41
2023-05-22T22:48:55.002Z,15.46
2023-05-22T22:57:49.595Z,15.41
2023-05-22T23:00:17.021Z,15.47
2023-05-22T23:02:43.444Z,15.55
2023-05-22T23:05:10.320Z,15.58
2023-05-22T23:07:36.749Z,15.65
2023-05-22T23:10:03.443Z,15.68
2023-05-22T23:12:32.120Z,15.77
2023-05-22T23:14:59.125Z,15.78
2023-05-22T23:17:25.453Z,15.79
2023-05-22T23:19:51.790Z,15.81
2023-05-22T23:22:18.527Z,15.73
2023-05-22T23:24:44.921Z,15.73
2023-05-22T23:27:11.236Z,15.73
2023-05-22T23:29:37.531Z,15.68
2023-05-22T23:32:04.759Z,15.71
2023-05-22T23:34:31.066Z,15.64
2023-05-22T23:36:57.393Z,15.62
2023-05-22T23:39:23.749Z,15.59
2023-05-22T23:41:53.491Z,15.54
2023-05-22T23:44:19.885Z,15.48
2023-05-22T23:46:46.955Z,15.43
2023-05-22T23:49:14.082Z,15.39
2023-05-22T23:51:40.429Z,15.30
2023-05-22T23:54:10.538Z,15.21
2023-05-22T23:56:36.895Z,15.18
2023-05-22T23:59:03.299Z,15.08
